Rangpur, Bangladesh
Current Conditions -  °F | °C
As of 3:50 PM on Sunday 21 Dec 2014 (Local Time) from VQPR Reporting Station
Clear Clear  
Wind Chill: 59°   Ceiling: Unl
Heat Index: 59°   Visibility: 6mi
Dew Point: 25°   Wind: 15mph
Humidity: 27%   Direction: 140°SE
Pressure: 29.97"   Gusts: NA
Location:  25.74°N, 89.25°E
Report Text: VQPR 210950Z 14013KT 9999 SKC 15/M04 Q1015 NOSIG
Loading
Personal Weather Stations






























Interactive Weather Map New forecast layout! Learn more

10-Day Weather Forecast

Advertisements
Track Severe Weather on mobile